sensor_id;sensor_type;location;lat;lon;timestamp;temperature;humidity
29855;DHT22;16733;48.738;9.106;2022-07-29T00:00:43;20.00;69.50
29855;DHT22;16733;48.738;9.106;2022-07-29T00:03:13;20.00;69.60
29855;DHT22;16733;48.738;9.106;2022-07-29T00:05:42;20.00;69.80
29855;DHT22;16733;48.738;9.106;2022-07-29T00:08:08;20.00;70.00
29855;DHT22;16733;48.738;9.106;2022-07-29T00:10:34;20.00;70.10
29855;DHT22;16733;48.738;9.106;2022-07-29T00:16:22;20.00;70.80
29855;DHT22;16733;48.738;9.106;2022-07-29T00:18:48;20.00;70.40
29855;DHT22;16733;48.738;9.106;2022-07-29T00:21:14;20.00;70.70
29855;DHT22;16733;48.738;9.106;2022-07-29T00:23:39;20.00;70.90
29855;DHT22;16733;48.738;9.106;2022-07-29T00:26:05;19.90;70.90
29855;DHT22;16733;48.738;9.106;2022-07-29T00:28:31;19.90;71.00
29855;DHT22;16733;48.738;9.106;2022-07-29T00:34:18;19.90;71.50
29855;DHT22;16733;48.738;9.106;2022-07-29T00:37:03;19.90;71.20
29855;DHT22;16733;48.738;9.106;2022-07-29T00:42:51;19.80;71.80
29855;DHT22;16733;48.738;9.106;2022-07-29T00:45:18;19.80;71.60
29855;DHT22;16733;48.738;9.106;2022-07-29T00:51:06;19.80;72.00
29855;DHT22;16733;48.738;9.106;2022-07-29T00:53:34;19.80;71.70
29855;DHT22;16733;48.738;9.106;2022-07-29T00:56:00;19.80;71.80
29855;DHT22;16733;48.738;9.106;2022-07-29T00:58:26;19.90;71.90
29855;DHT22;16733;48.738;9.106;2022-07-29T01:00:52;19.90;72.00
29855;DHT22;16733;48.738;9.106;2022-07-29T01:03:18;19.90;71.90
29855;DHT22;16733;48.738;9.106;2022-07-29T01:05:47;19.90;72.00
29855;DHT22;16733;48.738;9.106;2022-07-29T01:08:14;19.80;72.10
29855;DHT22;16733;48.738;9.106;2022-07-29T01:23:07;19.70;72.60
29855;DHT22;16733;48.738;9.106;2022-07-29T01:31:06;19.60;72.80
29855;DHT22;16733;48.738;9.106;2022-07-29T01:37:05;19.60;72.80
29855;DHT22;16733;48.738;9.106;2022-07-29T01:39:35;19.70;72.80
29855;DHT22;16733;48.738;9.106;2022-07-29T01:42:22;19.70;72.80
29855;DHT22;16733;48.738;9.106;2022-07-29T01:45:14;19.70;72.90
29855;DHT22;16733;48.738;9.106;2022-07-29T01:51:02;19.70;72.80
29855;DHT22;16733;48.738;9.106;2022-07-29T01:53:41;19.70;72.60
29855;DHT22;16733;48.738;9.106;2022-07-29T01:59:30;19.80;72.70
29855;DHT22;16733;48.738;9.106;2022-07-29T02:01:58;19.80;72.60
29855;DHT22;16733;48.738;9.106;2022-07-29T02:04:24;19.80;72.60
29855;DHT22;16733;48.738;9.106;2022-07-29T02:06:52;19.80;72.60
29855;DHT22;16733;48.738;9.106;2022-07-29T02:09:21;19.80;72.60
29855;DHT22;16733;48.738;9.106;2022-07-29T02:11:51;19.70;72.60
29855;DHT22;16733;48.738;9.106;2022-07-29T02:14:20;19.80;72.70
29855;DHT22;16733;48.738;9.106;2022-07-29T02:16:48;19.80;72.80
29855;DHT22;16733;48.738;9.106;2022-07-29T02:19:17;19.70;72.70
29855;DHT22;16733;48.738;9.106;2022-07-29T02:25:06;19.70;73.00
29855;DHT22;16733;48.738;9.106;2022-07-29T02:30:58;19.70;73.10
29855;DHT22;16733;48.738;9.106;2022-07-29T02:33:30;19.60;72.90
29855;DHT22;16733;48.738;9.106;2022-07-29T02:35:57;19.60;73.10
29855;DHT22;16733;48.738;9.106;2022-07-29T02:38:24;19.60;73.20
29855;DHT22;16733;48.738;9.106;2022-07-29T02:41:11;19.60;73.30
29855;DHT22;16733;48.738;9.106;2022-07-29T02:43:39;19.60;73.40
29855;DHT22;16733;48.738;9.106;2022-07-29T02:46:10;19.60;73.40
29855;DHT22;16733;48.738;9.106;2022-07-29T02:48:40;19.50;73.40
29855;DHT22;16733;48.738;9.106;2022-07-29T02:51:13;19.50;73.60
29855;DHT22;16733;48.738;9.106;2022-07-29T02:53:43;19.50;73.70
29855;DHT22;16733;48.738;9.106;2022-07-29T02:56:14;19.50;73.70
29855;DHT22;16733;48.738;9.106;2022-07-29T02:58:49;19.50;73.80
29855;DHT22;16733;48.738;9.106;2022-07-29T03:04:41;19.40;73.90
29855;DHT22;16733;48.738;9.106;2022-07-29T03:10:31;19.40;74.00
29855;DHT22;16733;48.738;9.106;2022-07-29T03:12:57;19.30;73.90
29855;DHT22;16733;48.738;9.106;2022-07-29T03:15:37;19.30;74.10
29855;DHT22;16733;48.738;9.106;2022-07-29T03:18:06;19.30;74.50
29855;DHT22;16733;48.738;9.106;2022-07-29T03:20:33;19.20;74.50
29855;DHT22;16733;48.738;9.106;2022-07-29T03:22:59;19.20;74.60
29855;DHT22;16733;48.738;9.106;2022-07-29T03:25:25;19.30;74.70
29855;DHT22;16733;48.738;9.106;2022-07-29T03:27:52;19.20;74.70
29855;DHT22;16733;48.738;9.106;2022-07-29T03:30:17;19.20;74.80
29855;DHT22;16733;48.738;9.106;2022-07-29T03:32:43;19.30;74.90
29855;DHT22;16733;48.738;9.106;2022-07-29T03:35:09;19.30;74.90
29855;DHT22;16733;48.738;9.106;2022-07-29T03:37:34;19.30;75.60
29855;DHT22;16733;48.738;9.106;2022-07-29T03:40:03;19.30;74.90
29855;DHT22;16733;48.738;9.106;2022-07-29T03:45:54;19.30;74.90
29855;DHT22;16733;48.738;9.106;2022-07-29T03:48:21;19.30;74.80
29855;DHT22;16733;48.738;9.106;2022-07-29T03:54:11;19.20;75.00
29855;DHT22;16733;48.738;9.106;2022-07-29T03:56:42;19.20;74.90
29855;DHT22;16733;48.738;9.106;2022-07-29T04:02:34;19.20;75.30
29855;DHT22;16733;48.738;9.106;2022-07-29T04:05:00;19.20;75.10
29855;DHT22;16733;48.738;9.106;2022-07-29T04:07:26;19.20;75.20
29855;DHT22;16733;48.738;9.106;2022-07-29T04:09:51;19.20;75.20
29855;DHT22;16733;48.738;9.106;2022-07-29T04:12:17;19.20;75.40
29855;DHT22;16733;48.738;9.106;2022-07-29T04:14:43;19.20;75.50
29855;DHT22;16733;48.738;9.106;2022-07-29T04:17:08;19.20;75.60
29855;DHT22;16733;48.738;9.106;2022-07-29T04:19:34;19.10;75.60
29855;DHT22;16733;48.738;9.106;2022-07-29T04:22:00;19.20;75.70
29855;DHT22;16733;48.738;9.106;2022-07-29T04:24:27;19.10;75.70
29855;DHT22;16733;48.738;9.106;2022-07-29T04:26:52;19.10;76.40
29855;DHT22;16733;48.738;9.106;2022-07-29T04:29:18;19.10;75.80
29855;DHT22;16733;48.738;9.106;2022-07-29T04:31:45;19.10;75.80
29855;DHT22;16733;48.738;9.106;2022-07-29T04:34:11;19.10;75.90
29855;DHT22;16733;48.738;9.106;2022-07-29T04:36:36;19.10;75.90
29855;DHT22;16733;48.738;9.106;2022-07-29T04:39:03;19.10;76.00
29855;DHT22;16733;48.738;9.106;2022-07-29T04:41:28;19.10;76.00
29855;DHT22;16733;48.738;9.106;2022-07-29T04:43:54;19.10;76.00
29855;DHT22;16733;48.738;9.106;2022-07-29T04:46:21;19.20;76.00
29855;DHT22;16733;48.738;9.106;2022-07-29T04:48:46;19.20;75.80
29855;DHT22;16733;48.738;9.106;2022-07-29T04:51:13;19.30;75.80
29855;DHT22;16733;48.738;9.106;2022-07-29T04:53:39;19.30;75.80
29855;DHT22;16733;48.738;9.106;2022-07-29T04:56:05;19.30;75.60
29855;DHT22;16733;48.738;9.106;2022-07-29T04:58:30;19.30;75.60
29855;DHT22;16733;48.738;9.106;2022-07-29T05:00:56;19.30;75.50
29855;DHT22;16733;48.738;9.106;2022-07-29T05:03:22;19.40;75.50
29855;DHT22;16733;48.738;9.106;2022-07-29T05:05:47;19.40;75.50
29855;DHT22;16733;48.738;9.106;2022-07-29T05:08:13;19.40;75.50
29855;DHT22;16733;48.738;9.106;2022-07-29T05:10:38;19.40;75.40
29855;DHT22;16733;48.738;9.106;2022-07-29T05:13:05;19.50;75.40
29855;DHT22;16733;48.738;9.106;2022-07-29T05:15:32;19.50;75.40
29855;DHT22;16733;48.738;9.106;2022-07-29T05:17:58;19.60;75.30
29855;DHT22;16733;48.738;9.106;2022-07-29T05:23:46;19.70;75.20
29855;DHT22;16733;48.738;9.106;2022-07-29T05:26:11;19.80;75.00
29855;DHT22;16733;48.738;9.106;2022-07-29T05:28:37;19.80;75.00
29855;DHT22;16733;48.738;9.106;2022-07-29T05:31:03;19.90;75.00
29855;DHT22;16733;48.738;9.106;2022-07-29T05:33:29;20.00;74.90
29855;DHT22;16733;48.738;9.106;2022-07-29T05:35:54;20.00;74.80
29855;DHT22;16733;48.738;9.106;2022-07-29T05:38:20;20.10;74.80
29855;DHT22;16733;48.738;9.106;2022-07-29T05:40:46;20.20;74.70
29855;DHT22;16733;48.738;9.106;2022-07-29T05:43:11;20.20;74.70
29855;DHT22;16733;48.738;9.106;2022-07-29T05:48:59;20.40;74.60
29855;DHT22;16733;48.738;9.106;2022-07-29T05:51:25;20.50;74.40
29855;DHT22;16733;48.738;9.106;2022-07-29T05:57:20;20.60;74.20
29855;DHT22;16733;48.738;9.106;2022-07-29T05:59:46;20.60;74.20
29855;DHT22;16733;48.738;9.106;2022-07-29T06:02:12;20.70;74.00
29855;DHT22;16733;48.738;9.106;2022-07-29T06:08:00;21.00;73.80
29855;DHT22;16733;48.738;9.106;2022-07-29T06:10:26;21.00;73.50
29855;DHT22;16733;48.738;9.106;2022-07-29T06:12:52;21.10;73.30
29855;DHT22;16733;48.738;9.106;2022-07-29T06:15:18;21.10;73.30
29855;DHT22;16733;48.738;9.106;2022-07-29T06:17:43;21.20;73.30
29855;DHT22;16733;48.738;9.106;2022-07-29T06:20:09;21.40;73.20
29855;DHT22;16733;48.738;9.106;2022-07-29T06:22:35;21.50;73.00
29855;DHT22;16733;48.738;9.106;2022-07-29T06:25:02;21.60;72.70
29855;DHT22;16733;48.738;9.106;2022-07-29T06:27:27;21.70;72.60
29855;DHT22;16733;48.738;9.106;2022-07-29T06:29:53;21.80;72.40
29855;DHT22;16733;48.738;9.106;2022-07-29T06:32:19;21.90;72.20
29855;DHT22;16733;48.738;9.106;2022-07-29T06:34:45;22.00;71.80
29855;DHT22;16733;48.738;9.106;2022-07-29T06:37:10;22.00;71.70
29855;DHT22;16733;48.738;9.106;2022-07-29T06:42:58;22.00;71.60
29855;DHT22;16733;48.738;9.106;2022-07-29T06:45:23;22.00;71.70
29855;DHT22;16733;48.738;9.106;2022-07-29T06:47:49;22.00;71.60
29855;DHT22;16733;48.738;9.106;2022-07-29T06:53:38;22.00;71.40
29855;DHT22;16733;48.738;9.106;2022-07-29T06:56:05;22.10;71.50
29855;DHT22;16733;48.738;9.106;2022-07-29T07:01:52;22.30;71.30
29855;DHT22;16733;48.738;9.106;2022-07-29T07:04:18;22.40;71.10
29855;DHT22;16733;48.738;9.106;2022-07-29T07:06:44;22.50;70.90
29855;DHT22;16733;48.738;9.106;2022-07-29T07:09:09;22.60;70.70
29855;DHT22;16733;48.738;9.106;2022-07-29T07:11:35;22.60;70.30
29855;DHT22;16733;48.738;9.106;2022-07-29T07:14:00;22.70;70.20
29855;DHT22;16733;48.738;9.106;2022-07-29T07:16:26;22.80;70.20
29855;DHT22;16733;48.738;9.106;2022-07-29T07:18:52;22.90;70.00
29855;DHT22;16733;48.738;9.106;2022-07-29T07:21:17;22.90;69.60
29855;DHT22;16733;48.738;9.106;2022-07-29T07:23:43;23.10;69.40
29855;DHT22;16733;48.738;9.106;2022-07-29T07:26:08;23.10;69.00
29855;DHT22;16733;48.738;9.106;2022-07-29T07:35:19;23.20;68.50
29855;DHT22;16733;48.738;9.106;2022-07-29T07:37:45;23.30;68.50
29855;DHT22;16733;48.738;9.106;2022-07-29T07:40:11;23.30;68.20
29855;DHT22;16733;48.738;9.106;2022-07-29T07:42:38;23.40;68.20
29855;DHT22;16733;48.738;9.106;2022-07-29T07:45:04;23.40;67.90
29855;DHT22;16733;48.738;9.106;2022-07-29T07:47:31;23.50;67.80
29855;DHT22;16733;48.738;9.106;2022-07-29T07:49:57;23.60;67.60
29855;DHT22;16733;48.738;9.106;2022-07-29T07:52:23;23.60;67.20
29855;DHT22;16733;48.738;9.106;2022-07-29T07:54:48;23.70;67.00
29855;DHT22;16733;48.738;9.106;2022-07-29T07:57:14;23.70;66.90
29855;DHT22;16733;48.738;9.106;2022-07-29T07:59:40;23.70;66.60
29855;DHT22;16733;48.738;9.106;2022-07-29T08:02:07;23.70;66.70
29855;DHT22;16733;48.738;9.106;2022-07-29T08:04:33;23.80;66.40
29855;DHT22;16733;48.738;9.106;2022-07-29T08:06:59;23.80;66.10
29855;DHT22;16733;48.738;9.106;2022-07-29T08:12:47;24.10;64.80
29855;DHT22;16733;48.738;9.106;2022-07-29T08:15:13;24.10;64.70
29855;DHT22;16733;48.738;9.106;2022-07-29T08:17:39;24.20;64.30
29855;DHT22;16733;48.738;9.106;2022-07-29T08:20:05;24.20;63.80
29855;DHT22;16733;48.738;9.106;2022-07-29T08:22:30;24.20;63.60
29855;DHT22;16733;48.738;9.106;2022-07-29T08:24:56;24.20;63.40
29855;DHT22;16733;48.738;9.106;2022-07-29T08:27:22;24.40;63.10
29855;DHT22;16733;48.738;9.106;2022-07-29T08:29:48;24.50;62.50
29855;DHT22;16733;48.738;9.106;2022-07-29T08:35:36;24.70;61.10
29855;DHT22;16733;48.738;9.106;2022-07-29T08:38:01;24.80;61.10
29855;DHT22;16733;48.738;9.106;2022-07-29T08:43:51;24.80;59.80
29855;DHT22;16733;48.738;9.106;2022-07-29T08:46:18;24.80;60.00
29855;DHT22;16733;48.738;9.106;2022-07-29T08:52:06;24.90;59.40
29855;DHT22;16733;48.738;9.106;2022-07-29T08:54:32;25.00;59.50
29855;DHT22;16733;48.738;9.106;2022-07-29T08:56:59;25.00;59.20
29855;DHT22;16733;48.738;9.106;2022-07-29T09:02:58;25.20;58.40
29855;DHT22;16733;48.738;9.106;2022-07-29T09:08:46;25.30;58.20
29855;DHT22;16733;48.738;9.106;2022-07-29T09:11:13;25.40;58.40
29855;DHT22;16733;48.738;9.106;2022-07-29T09:13:39;25.40;58.20
29855;DHT22;16733;48.738;9.106;2022-07-29T09:19:37;25.50;57.50
29855;DHT22;16733;48.738;9.106;2022-07-29T09:22:28;25.50;57.60
29855;DHT22;16733;48.738;9.106;2022-07-29T09:24:53;25.50;57.40
29855;DHT22;16733;48.738;9.106;2022-07-29T09:27:24;25.60;57.50
29855;DHT22;16733;48.738;9.106;2022-07-29T09:30:07;25.70;57.30
29855;DHT22;16733;48.738;9.106;2022-07-29T09:36:04;25.90;56.60
29855;DHT22;16733;48.738;9.106;2022-07-29T09:38:31;25.90;56.70
29855;DHT22;16733;48.738;9.106;2022-07-29T09:40:58;26.00;56.50
29855;DHT22;16733;48.738;9.106;2022-07-29T09:43:24;26.00;56.10
29855;DHT22;16733;48.738;9.106;2022-07-29T09:45:50;26.10;55.90
29855;DHT22;16733;48.738;9.106;2022-07-29T09:48:21;26.30;55.70
29855;DHT22;16733;48.738;9.106;2022-07-29T09:50:49;26.50;55.50
29855;DHT22;16733;48.738;9.106;2022-07-29T09:53:34;26.60;55.10
29855;DHT22;16733;48.738;9.106;2022-07-29T09:56:00;26.80;54.60
29855;DHT22;16733;48.738;9.106;2022-07-29T09:58:26;26.90;54.50
29855;DHT22;16733;48.738;9.106;2022-07-29T10:00:53;26.90;54.20
29855;DHT22;16733;48.738;9.106;2022-07-29T10:03:19;27.00;54.00
29855;DHT22;16733;48.738;9.106;2022-07-29T10:05:45;27.10;53.50
29855;DHT22;16733;48.738;9.106;2022-07-29T10:11:33;27.20;52.80
29855;DHT22;16733;48.738;9.106;2022-07-29T10:13:58;27.30;53.10
29855;DHT22;16733;48.738;9.106;2022-07-29T10:16:24;27.30;52.90
29855;DHT22;16733;48.738;9.106;2022-07-29T10:18:51;27.20;52.70
29855;DHT22;16733;48.738;9.106;2022-07-29T10:21:17;27.20;52.50
29855;DHT22;16733;48.738;9.106;2022-07-29T10:23:43;27.10;52.40
29855;DHT22;16733;48.738;9.106;2022-07-29T10:26:10;27.00;52.20
29855;DHT22;16733;48.738;9.106;2022-07-29T10:28:36;26.80;52.20
29855;DHT22;16733;48.738;9.106;2022-07-29T10:31:05;26.70;52.40
29855;DHT22;16733;48.738;9.106;2022-07-29T10:49:27;24.60;55.40
29855;DHT22;16733;48.738;9.106;2022-07-29T10:55:37;22.80;62.70
29855;DHT22;16733;48.738;9.106;2022-07-29T10:58:15;22.20;68.40
29855;DHT22;16733;48.738;9.106;2022-07-29T11:00:41;21.70;71.60
29855;DHT22;16733;48.738;9.106;2022-07-29T11:03:06;21.10;75.10
29855;DHT22;16733;48.738;9.106;2022-07-29T11:05:55;20.70;78.70
29855;DHT22;16733;48.738;9.106;2022-07-29T11:08:22;20.20;82.80
29855;DHT22;16733;48.738;9.106;2022-07-29T11:10:53;19.80;84.20
29855;DHT22;16733;48.738;9.106;2022-07-29T11:16:11;19.10;90.90
29855;DHT22;16733;48.738;9.106;2022-07-29T11:21:43;19.00;93.40
29855;DHT22;16733;48.738;9.106;2022-07-29T11:24:38;19.00;94.20
29855;DHT22;16733;48.738;9.106;2022-07-29T11:30:52;18.80;95.70
29855;DHT22;16733;48.738;9.106;2022-07-29T11:33:29;18.90;97.20
29855;DHT22;16733;48.738;9.106;2022-07-29T11:36:09;19.00;98.00
29855;DHT22;16733;48.738;9.106;2022-07-29T11:38:35;19.20;98.70
29855;DHT22;16733;48.738;9.106;2022-07-29T11:41:26;19.30;99.20
29855;DHT22;16733;48.738;9.106;2022-07-29T11:47:19;19.50;99.90
29855;DHT22;16733;48.738;9.106;2022-07-29T11:49:45;19.50;99.90
29855;DHT22;16733;48.738;9.106;2022-07-29T11:52:11;19.40;99.90
29855;DHT22;16733;48.738;9.106;2022-07-29T11:58:00;19.20;99.90
29855;DHT22;16733;48.738;9.106;2022-07-29T12:03:47;19.10;99.90
29855;DHT22;16733;48.738;9.106;2022-07-29T12:06:13;19.10;99.90
29855;DHT22;16733;48.738;9.106;2022-07-29T12:08:42;19.20;99.90
29855;DHT22;16733;48.738;9.106;2022-07-29T12:11:16;19.20;99.90
29855;DHT22;16733;48.738;9.106;2022-07-29T12:13:42;19.20;99.90
29855;DHT22;16733;48.738;9.106;2022-07-29T12:16:08;19.30;99.90
29855;DHT22;16733;48.738;9.106;2022-07-29T12:18:33;19.40;99.90
29855;DHT22;16733;48.738;9.106;2022-07-29T12:21:00;19.40;99.90
29855;DHT22;16733;48.738;9.106;2022-07-29T12:26:55;19.50;99.90
29855;DHT22;16733;48.738;9.106;2022-07-29T12:29:21;19.50;99.90
29855;DHT22;16733;48.738;9.106;2022-07-29T12:31:51;19.60;99.90
29855;DHT22;16733;48.738;9.106;2022-07-29T12:34:20;19.60;99.90
29855;DHT22;16733;48.738;9.106;2022-07-29T12:36:48;19.70;99.90
29855;DHT22;16733;48.738;9.106;2022-07-29T12:39:15;19.80;99.90
29855;DHT22;16733;48.738;9.106;2022-07-29T12:41:41;19.80;99.90
29855;DHT22;16733;48.738;9.106;2022-07-29T12:44:06;19.80;99.90
29855;DHT22;16733;48.738;9.106;2022-07-29T12:46:32;19.70;99.90
29855;DHT22;16733;48.738;9.106;2022-07-29T12:48:58;19.70;99.90
29855;DHT22;16733;48.738;9.106;2022-07-29T12:51:32;19.70;99.90
29855;DHT22;16733;48.738;9.106;2022-07-29T12:54:09;19.80;99.90
29855;DHT22;16733;48.738;9.106;2022-07-29T12:56:36;19.80;99.90
29855;DHT22;16733;48.738;9.106;2022-07-29T12:59:19;19.80;99.90
29855;DHT22;16733;48.738;9.106;2022-07-29T13:01:48;19.80;99.90
29855;DHT22;16733;48.738;9.106;2022-07-29T13:04:28;19.80;99.90
29855;DHT22;16733;48.738;9.106;2022-07-29T13:07:05;19.80;99.90
29855;DHT22;16733;48.738;9.106;2022-07-29T13:13:11;19.70;99.90
29855;DHT22;16733;48.738;9.106;2022-07-29T13:15:44;19.50;99.90
29855;DHT22;16733;48.738;9.106;2022-07-29T13:18:35;19.30;99.90
29855;DHT22;16733;48.738;9.106;2022-07-29T13:21:12;19.10;99.90
29855;DHT22;16733;48.738;9.106;2022-07-29T13:23:37;18.90;99.90
29855;DHT22;16733;48.738;9.106;2022-07-29T13:29:25;18.80;99.90
29855;DHT22;16733;48.738;9.106;2022-07-29T13:31:52;18.80;99.90
29855;DHT22;16733;48.738;9.106;2022-07-29T13:37:40;18.70;99.90
29855;DHT22;16733;48.738;9.106;2022-07-29T13:40:07;18.70;99.90
29855;DHT22;16733;48.738;9.106;2022-07-29T13:45:55;18.50;99.90
29855;DHT22;16733;48.738;9.106;2022-07-29T13:48:21;18.60;99.90
29855;DHT22;16733;48.738;9.106;2022-07-29T13:50:46;18.70;99.90
29855;DHT22;16733;48.738;9.106;2022-07-29T13:53:13;18.90;99.90
29855;DHT22;16733;48.738;9.106;2022-07-29T13:55:39;19.10;99.90
29855;DHT22;16733;48.738;9.106;2022-07-29T14:01:27;19.70;99.90
29855;DHT22;16733;48.738;9.106;2022-07-29T14:07:15;20.00;99.90
29855;DHT22;16733;48.738;9.106;2022-07-29T14:13:03;20.20;99.90
29855;DHT22;16733;48.738;9.106;2022-07-29T14:15:29;20.30;99.90
29855;DHT22;16733;48.738;9.106;2022-07-29T14:21:17;20.60;99.90
29855;DHT22;16733;48.738;9.106;2022-07-29T14:23:42;20.60;99.90
29855;DHT22;16733;48.738;9.106;2022-07-29T14:26:08;20.80;99.90
29855;DHT22;16733;48.738;9.106;2022-07-29T14:28:33;20.90;99.90
29855;DHT22;16733;48.738;9.106;2022-07-29T14:34:21;21.00;99.90
29855;DHT22;16733;48.738;9.106;2022-07-29T14:40:10;21.20;99.90
29855;DHT22;16733;48.738;9.106;2022-07-29T14:42:36;21.20;99.90
29855;DHT22;16733;48.738;9.106;2022-07-29T14:48:24;21.40;99.90
29855;DHT22;16733;48.738;9.106;2022-07-29T14:50:50;21.50;99.90
29855;DHT22;16733;48.738;9.106;2022-07-29T14:53:15;21.50;99.90
29855;DHT22;16733;48.738;9.106;2022-07-29T15:02:25;21.50;99.90
29855;DHT22;16733;48.738;9.106;2022-07-29T15:11:35;21.60;99.90
29855;DHT22;16733;48.738;9.106;2022-07-29T15:14:00;21.80;99.90
29855;DHT22;16733;48.738;9.106;2022-07-29T15:16:26;21.80;99.90
29855;DHT22;16733;48.738;9.106;2022-07-29T15:18:51;21.90;99.90
29855;DHT22;16733;48.738;9.106;2022-07-29T15:21:17;21.90;99.90
29855;DHT22;16733;48.738;9.106;2022-07-29T15:23:43;21.90;99.90
29855;DHT22;16733;48.738;9.106;2022-07-29T15:26:12;22.00;99.90
29855;DHT22;16733;48.738;9.106;2022-07-29T15:28:37;22.00;99.90
29855;DHT22;16733;48.738;9.106;2022-07-29T15:31:03;22.00;99.90
29855;DHT22;16733;48.738;9.106;2022-07-29T15:33:29;22.10;99.90
29855;DHT22;16733;48.738;9.106;2022-07-29T15:35:56;22.10;99.90
29855;DHT22;16733;48.738;9.106;2022-07-29T15:38:22;22.10;99.90
29855;DHT22;16733;48.738;9.106;2022-07-29T15:40:47;22.10;99.90
29855;DHT22;16733;48.738;9.106;2022-07-29T15:46:35;22.20;99.90
29855;DHT22;16733;48.738;9.106;2022-07-29T15:49:19;22.20;99.90
29855;DHT22;16733;48.738;9.106;2022-07-29T15:51:44;22.20;99.90
29855;DHT22;16733;48.738;9.106;2022-07-29T15:54:10;22.20;99.90
29855;DHT22;16733;48.738;9.106;2022-07-29T15:56:38;22.30;99.90
29855;DHT22;16733;48.738;9.106;2022-07-29T15:59:04;22.30;99.90
29855;DHT22;16733;48.738;9.106;2022-07-29T16:01:29;22.30;99.90
29855;DHT22;16733;48.738;9.106;2022-07-29T16:03:57;22.30;99.90
29855;DHT22;16733;48.738;9.106;2022-07-29T16:09:44;22.30;99.90
29855;DHT22;16733;48.738;9.106;2022-07-29T16:12:10;22.30;99.90
29855;DHT22;16733;48.738;9.106;2022-07-29T16:17:58;22.30;99.90
29855;DHT22;16733;48.738;9.106;2022-07-29T16:20:24;22.30;99.90
29855;DHT22;16733;48.738;9.106;2022-07-29T16:22:49;22.30;99.90
29855;DHT22;16733;48.738;9.106;2022-07-29T16:28:37;22.30;99.90
29855;DHT22;16733;48.738;9.106;2022-07-29T16:31:02;22.30;99.90
29855;DHT22;16733;48.738;9.106;2022-07-29T16:33:28;22.20;99.90
29855;DHT22;16733;48.738;9.106;2022-07-29T16:35:54;22.20;99.90
29855;DHT22;16733;48.738;9.106;2022-07-29T16:38:19;22.20;99.90
29855;DHT22;16733;48.738;9.106;2022-07-29T16:44:07;22.20;99.90
29855;DHT22;16733;48.738;9.106;2022-07-29T16:46:33;22.20;99.90
29855;DHT22;16733;48.738;9.106;2022-07-29T16:52:23;22.20;99.90
29855;DHT22;16733;48.738;9.106;2022-07-29T16:54:49;22.10;99.90
29855;DHT22;16733;48.738;9.106;2022-07-29T16:57:15;22.10;99.90
29855;DHT22;16733;48.738;9.106;2022-07-29T16:59:41;22.10;99.90
29855;DHT22;16733;48.738;9.106;2022-07-29T17:02:06;22.10;99.90
29855;DHT22;16733;48.738;9.106;2022-07-29T17:04:32;22.10;99.90
29855;DHT22;16733;48.738;9.106;2022-07-29T17:07:13;22.20;99.90
29855;DHT22;16733;48.738;9.106;2022-07-29T17:09:40;22.20;99.90
29855;DHT22;16733;48.738;9.106;2022-07-29T17:12:06;22.20;99.90
29855;DHT22;16733;48.738;9.106;2022-07-29T17:14:31;22.30;99.90
29855;DHT22;16733;48.738;9.106;2022-07-29T17:16:59;22.30;99.90
29855;DHT22;16733;48.738;9.106;2022-07-29T17:19:25;22.30;99.90
29855;DHT22;16733;48.738;9.106;2022-07-29T17:21:51;22.40;99.90
29855;DHT22;16733;48.738;9.106;2022-07-29T17:24:18;22.40;99.90
29855;DHT22;16733;48.738;9.106;2022-07-29T17:26:43;22.40;99.90
29855;DHT22;16733;48.738;9.106;2022-07-29T17:29:10;22.50;99.90
29855;DHT22;16733;48.738;9.106;2022-07-29T17:31:36;22.50;99.90
29855;DHT22;16733;48.738;9.106;2022-07-29T17:37:24;22.50;99.90
29855;DHT22;16733;48.738;9.106;2022-07-29T17:39:49;22.50;99.90
29855;DHT22;16733;48.738;9.106;2022-07-29T17:42:15;22.50;99.90
29855;DHT22;16733;48.738;9.106;2022-07-29T17:48:03;22.50;99.90
29855;DHT22;16733;48.738;9.106;2022-07-29T17:50:28;22.50;99.90
29855;DHT22;16733;48.738;9.106;2022-07-29T17:52:54;22.50;99.90
29855;DHT22;16733;48.738;9.106;2022-07-29T17:55:20;22.50;99.90
29855;DHT22;16733;48.738;9.106;2022-07-29T17:57:45;22.50;99.90
29855;DHT22;16733;48.738;9.106;2022-07-29T18:00:11;22.50;99.90
29855;DHT22;16733;48.738;9.106;2022-07-29T18:02:37;22.40;99.90
29855;DHT22;16733;48.738;9.106;2022-07-29T18:05:03;22.40;99.90
29855;DHT22;16733;48.738;9.106;2022-07-29T18:07:29;22.50;99.90
29855;DHT22;16733;48.738;9.106;2022-07-29T18:09:55;22.40;99.90
29855;DHT22;16733;48.738;9.106;2022-07-29T18:12:20;22.40;99.90
29855;DHT22;16733;48.738;9.106;2022-07-29T18:18:08;22.40;99.90
29855;DHT22;16733;48.738;9.106;2022-07-29T18:20:34;22.40;99.90
29855;DHT22;16733;48.738;9.106;2022-07-29T18:29:44;22.30;99.90
29855;DHT22;16733;48.738;9.106;2022-07-29T18:35:31;22.20;99.90
29855;DHT22;16733;48.738;9.106;2022-07-29T18:37:57;22.20;99.90
29855;DHT22;16733;48.738;9.106;2022-07-29T18:40:23;22.10;99.90
29855;DHT22;16733;48.738;9.106;2022-07-29T18:43:08;22.00;99.90
29855;DHT22;16733;48.738;9.106;2022-07-29T18:45:34;22.00;99.90
29855;DHT22;16733;48.738;9.106;2022-07-29T18:48:00;22.00;99.90
29855;DHT22;16733;48.738;9.106;2022-07-29T18:50:26;21.90;99.90
29855;DHT22;16733;48.738;9.106;2022-07-29T18:52:52;21.90;99.90
29855;DHT22;16733;48.738;9.106;2022-07-29T18:55:19;21.80;99.90
29855;DHT22;16733;48.738;9.106;2022-07-29T18:57:45;21.70;99.90
29855;DHT22;16733;48.738;9.106;2022-07-29T19:00:10;21.60;99.90
29855;DHT22;16733;48.738;9.106;2022-07-29T19:02:37;21.60;99.90
29855;DHT22;16733;48.738;9.106;2022-07-29T19:05:07;21.50;99.90
29855;DHT22;16733;48.738;9.106;2022-07-29T19:17:39;21.20;99.90
29855;DHT22;16733;48.738;9.106;2022-07-29T19:20:08;21.10;99.90
29855;DHT22;16733;48.738;9.106;2022-07-29T19:22:34;21.00;99.90
29855;DHT22;16733;48.738;9.106;2022-07-29T19:24:59;20.90;99.90
29855;DHT22;16733;48.738;9.106;2022-07-29T19:27:25;20.90;99.90
29855;DHT22;16733;48.738;9.106;2022-07-29T19:29:51;20.80;99.90
29855;DHT22;16733;48.738;9.106;2022-07-29T19:32:16;20.70;99.90
29855;DHT22;16733;48.738;9.106;2022-07-29T19:38:04;20.60;99.90
29855;DHT22;16733;48.738;9.106;2022-07-29T19:40:30;20.60;99.90
29855;DHT22;16733;48.738;9.106;2022-07-29T19:42:56;20.50;99.90
29855;DHT22;16733;48.738;9.106;2022-07-29T19:45:23;20.40;99.90
29855;DHT22;16733;48.738;9.106;2022-07-29T19:47:49;20.40;99.90
29855;DHT22;16733;48.738;9.106;2022-07-29T19:50:15;20.30;99.90
29855;DHT22;16733;48.738;9.106;2022-07-29T19:52:41;20.30;99.90
29855;DHT22;16733;48.738;9.106;2022-07-29T19:55:08;20.20;99.90
29855;DHT22;16733;48.738;9.106;2022-07-29T19:57:33;20.20;99.90
29855;DHT22;16733;48.738;9.106;2022-07-29T19:59:59;20.20;99.90
29855;DHT22;16733;48.738;9.106;2022-07-29T20:02:25;20.20;99.90
29855;DHT22;16733;48.738;9.106;2022-07-29T20:04:50;20.20;99.90